Daniel, Wyoming
Current Conditions -  °F | °C
As of 10:35 AM on Wednesday 26 Nov 2014 (Local Time) from KPNA Reporting Station
Clear Clear  
Wind Chill: -3°   Ceiling: Unl
Heat Index:   Visibility: 10mi
Dew Point:   Wind: 15mph
Humidity: 87%   Direction: 310°NW
Pressure: 30.26"   Gusts: NA
Location:  42.86°N, 110.07°W
Report Text: KPNA 261735Z AUTO 31013KT 10SM CLR 02/00 A3026 RMK AO2
Loading
Personal Weather Stations






























Interactive Weather Map New forecast layout! Learn more

10-Day Weather Forecast

Advertisements
Track Severe Weather on mobile